sensor_id;sensor_type;location;lat;lon;timestamp;P1;durP1;ratioP1;P2;durP2;ratioP2
41514;SDS011;27247;48.020;16.720;2022-08-19T00:03:15;10.95;;;3.13;;
41514;SDS011;27247;48.020;16.720;2022-08-19T00:07:25;9.67;;;3.13;;
41514;SDS011;27247;48.020;16.720;2022-08-19T00:11:36;13.70;;;3.53;;
41514;SDS011;27247;48.020;16.720;2022-08-19T00:15:47;9.57;;;4.18;;
41514;SDS011;27247;48.020;16.720;2022-08-19T00:19:57;10.87;;;3.43;;
41514;SDS011;27247;48.020;16.720;2022-08-19T00:24:08;9.43;;;3.77;;
41514;SDS011;27247;48.020;16.720;2022-08-19T00:28:19;8.20;;;3.65;;
41514;SDS011;27247;48.020;16.720;2022-08-19T00:32:30;7.85;;;3.63;;
41514;SDS011;27247;48.020;16.720;2022-08-19T00:36:41;13.83;;;3.37;;
41514;SDS011;27247;48.020;16.720;2022-08-19T00:40:51;8.68;;;3.30;;
41514;SDS011;27247;48.020;16.720;2022-08-19T00:45:02;5.93;;;3.10;;
41514;SDS011;27247;48.020;16.720;2022-08-19T00:49:31;16.45;;;4.07;;
41514;SDS011;27247;48.020;16.720;2022-08-19T00:53:43;12.35;;;3.92;;
41514;SDS011;27247;48.020;16.720;2022-08-19T00:57:56;9.73;;;3.60;;
41514;SDS011;27247;48.020;16.720;2022-08-19T01:02:11;10.63;;;3.15;;
41514;SDS011;27247;48.020;16.720;2022-08-19T01:06:21;11.82;;;3.20;;
41514;SDS011;27247;48.020;16.720;2022-08-19T01:10:33;6.73;;;2.83;;
41514;SDS011;27247;48.020;16.720;2022-08-19T01:14:49;8.65;;;2.80;;
41514;SDS011;27247;48.020;16.720;2022-08-19T01:19:00;10.43;;;3.05;;
41514;SDS011;27247;48.020;16.720;2022-08-19T01:23:12;10.35;;;3.15;;
41514;SDS011;27247;48.020;16.720;2022-08-19T01:27:23;6.47;;;2.85;;
41514;SDS011;27247;48.020;16.720;2022-08-19T01:31:34;11.50;;;3.20;;
41514;SDS011;27247;48.020;16.720;2022-08-19T01:35:44;7.90;;;2.67;;
41514;SDS011;27247;48.020;16.720;2022-08-19T01:39:55;7.85;;;2.78;;
41514;SDS011;27247;48.020;16.720;2022-08-19T01:44:06;4.95;;;2.65;;
41514;SDS011;27247;48.020;16.720;2022-08-19T01:48:18;13.82;;;3.00;;
41514;SDS011;27247;48.020;16.720;2022-08-19T01:52:28;13.35;;;3.47;;
41514;SDS011;27247;48.020;16.720;2022-08-19T01:56:39;10.73;;;3.20;;
41514;SDS011;27247;48.020;16.720;2022-08-19T02:00:49;9.53;;;3.57;;
41514;SDS011;27247;48.020;16.720;2022-08-19T02:05:00;9.30;;;2.95;;
41514;SDS011;27247;48.020;16.720;2022-08-19T02:09:10;8.77;;;3.00;;
41514;SDS011;27247;48.020;16.720;2022-08-19T02:13:20;8.97;;;2.67;;
41514;SDS011;27247;48.020;16.720;2022-08-19T02:17:31;10.95;;;3.15;;
41514;SDS011;27247;48.020;16.720;2022-08-19T02:21:41;14.80;;;3.22;;
41514;SDS011;27247;48.020;16.720;2022-08-19T02:25:53;7.85;;;3.10;;
41514;SDS011;27247;48.020;16.720;2022-08-19T02:30:05;11.77;;;2.75;;
41514;SDS011;27247;48.020;16.720;2022-08-19T02:34:17;10.30;;;3.13;;
41514;SDS011;27247;48.020;16.720;2022-08-19T02:38:27;13.20;;;3.20;;
41514;SDS011;27247;48.020;16.720;2022-08-19T02:42:38;10.70;;;2.90;;
41514;SDS011;27247;48.020;16.720;2022-08-19T02:46:50;11.73;;;3.25;;
41514;SDS011;27247;48.020;16.720;2022-08-19T02:51:01;13.00;;;3.08;;
41514;SDS011;27247;48.020;16.720;2022-08-19T02:55:11;8.03;;;3.37;;
41514;SDS011;27247;48.020;16.720;2022-08-19T02:59:21;14.03;;;3.43;;
41514;SDS011;27247;48.020;16.720;2022-08-19T03:03:32;7.63;;;3.00;;
41514;SDS011;27247;48.020;16.720;2022-08-19T03:07:42;10.77;;;2.80;;
41514;SDS011;27247;48.020;16.720;2022-08-19T03:11:52;11.77;;;2.85;;
41514;SDS011;27247;48.020;16.720;2022-08-19T03:16:04;9.83;;;2.80;;
41514;SDS011;27247;48.020;16.720;2022-08-19T03:20:15;9.85;;;2.65;;
41514;SDS011;27247;48.020;16.720;2022-08-19T03:24:25;7.75;;;3.83;;
41514;SDS011;27247;48.020;16.720;2022-08-19T03:28:36;9.52;;;3.55;;
41514;SDS011;27247;48.020;16.720;2022-08-19T03:32:47;8.75;;;2.97;;
41514;SDS011;27247;48.020;16.720;2022-08-19T03:36:59;8.05;;;2.42;;
41514;SDS011;27247;48.020;16.720;2022-08-19T03:41:16;8.90;;;3.35;;
41514;SDS011;27247;48.020;16.720;2022-08-19T03:45:37;8.35;;;2.75;;
41514;SDS011;27247;48.020;16.720;2022-08-19T03:49:47;19.00;;;3.53;;
41514;SDS011;27247;48.020;16.720;2022-08-19T03:53:58;10.47;;;2.87;;
41514;SDS011;27247;48.020;16.720;2022-08-19T03:58:10;9.50;;;2.92;;
41514;SDS011;27247;48.020;16.720;2022-08-19T04:02:21;7.27;;;2.70;;
41514;SDS011;27247;48.020;16.720;2022-08-19T04:06:32;8.23;;;3.55;;
41514;SDS011;27247;48.020;16.720;2022-08-19T04:10:44;10.30;;;3.20;;
41514;SDS011;27247;48.020;16.720;2022-08-19T04:14:54;7.50;;;3.23;;
41514;SDS011;27247;48.020;16.720;2022-08-19T04:19:05;12.00;;;3.20;;
41514;SDS011;27247;48.020;16.720;2022-08-19T04:23:16;9.05;;;2.83;;
41514;SDS011;27247;48.020;16.720;2022-08-19T04:27:26;5.50;;;2.45;;
41514;SDS011;27247;48.020;16.720;2022-08-19T04:31:37;13.13;;;3.23;;
41514;SDS011;27247;48.020;16.720;2022-08-19T04:35:47;17.52;;;3.50;;
41514;SDS011;27247;48.020;16.720;2022-08-19T04:40:00;13.80;;;3.05;;
41514;SDS011;27247;48.020;16.720;2022-08-19T04:44:30;12.50;;;3.35;;
41514;SDS011;27247;48.020;16.720;2022-08-19T04:48:41;11.68;;;2.95;;
41514;SDS011;27247;48.020;16.720;2022-08-19T04:52:53;6.38;;;2.90;;
41514;SDS011;27247;48.020;16.720;2022-08-19T04:57:08;7.00;;;2.75;;
41514;SDS011;27247;48.020;16.720;2022-08-19T05:01:30;8.40;;;2.90;;
41514;SDS011;27247;48.020;16.720;2022-08-19T05:05:43;6.28;;;3.17;;
41514;SDS011;27247;48.020;16.720;2022-08-19T05:09:55;7.43;;;3.63;;
41514;SDS011;27247;48.020;16.720;2022-08-19T05:14:06;7.53;;;2.77;;
41514;SDS011;27247;48.020;16.720;2022-08-19T05:18:17;6.57;;;3.10;;
41514;SDS011;27247;48.020;16.720;2022-08-19T05:22:46;4.90;;;3.00;;
41514;SDS011;27247;48.020;16.720;2022-08-19T05:26:57;6.75;;;2.60;;
41514;SDS011;27247;48.020;16.720;2022-08-19T05:31:07;8.75;;;2.90;;
41514;SDS011;27247;48.020;16.720;2022-08-19T05:35:18;8.27;;;3.33;;
41514;SDS011;27247;48.020;16.720;2022-08-19T05:39:29;8.73;;;3.38;;
41514;SDS011;27247;48.020;16.720;2022-08-19T05:43:42;8.23;;;2.92;;
41514;SDS011;27247;48.020;16.720;2022-08-19T05:47:52;18.23;;;4.47;;
41514;SDS011;27247;48.020;16.720;2022-08-19T05:52:03;7.17;;;2.93;;
41514;SDS011;27247;48.020;16.720;2022-08-19T05:56:15;9.02;;;3.42;;
41514;SDS011;27247;48.020;16.720;2022-08-19T06:00:27;15.98;;;3.38;;
41514;SDS011;27247;48.020;16.720;2022-08-19T06:04:39;9.32;;;3.42;;
41514;SDS011;27247;48.020;16.720;2022-08-19T06:08:52;12.73;;;3.75;;
41514;SDS011;27247;48.020;16.720;2022-08-19T06:13:03;12.60;;;3.87;;
41514;SDS011;27247;48.020;16.720;2022-08-19T06:17:15;8.75;;;4.03;;
41514;SDS011;27247;48.020;16.720;2022-08-19T06:21:26;9.30;;;3.77;;
41514;SDS011;27247;48.020;16.720;2022-08-19T06:25:38;6.53;;;4.25;;
41514;SDS011;27247;48.020;16.720;2022-08-19T06:29:49;10.48;;;4.90;;
41514;SDS011;27247;48.020;16.720;2022-08-19T06:34:01;20.42;;;6.28;;
41514;SDS011;27247;48.020;16.720;2022-08-19T06:38:14;14.73;;;6.35;;
41514;SDS011;27247;48.020;16.720;2022-08-19T06:42:24;12.30;;;6.03;;
41514;SDS011;27247;48.020;16.720;2022-08-19T06:46:35;10.57;;;6.40;;
41514;SDS011;27247;48.020;16.720;2022-08-19T06:50:46;10.32;;;6.53;;
41514;SDS011;27247;48.020;16.720;2022-08-19T06:55:00;12.07;;;6.97;;
41514;SDS011;27247;48.020;16.720;2022-08-19T06:59:12;11.52;;;6.85;;
41514;SDS011;27247;48.020;16.720;2022-08-19T07:03:28;10.93;;;6.32;;
41514;SDS011;27247;48.020;16.720;2022-08-19T07:07:41;12.30;;;6.55;;
41514;SDS011;27247;48.020;16.720;2022-08-19T07:11:53;14.45;;;7.35;;
41514;SDS011;27247;48.020;16.720;2022-08-19T07:16:07;11.73;;;7.28;;
41514;SDS011;27247;48.020;16.720;2022-08-19T07:20:18;14.13;;;6.93;;
41514;SDS011;27247;48.020;16.720;2022-08-19T07:24:29;12.05;;;6.70;;
41514;SDS011;27247;48.020;16.720;2022-08-19T07:28:40;14.75;;;7.22;;
41514;SDS011;27247;48.020;16.720;2022-08-19T07:32:50;9.65;;;6.78;;
41514;SDS011;27247;48.020;16.720;2022-08-19T07:37:03;11.38;;;6.93;;
41514;SDS011;27247;48.020;16.720;2022-08-19T07:41:18;11.02;;;5.82;;
41514;SDS011;27247;48.020;16.720;2022-08-19T07:45:31;8.85;;;6.03;;
41514;SDS011;27247;48.020;16.720;2022-08-19T07:49:42;12.82;;;6.53;;
41514;SDS011;27247;48.020;16.720;2022-08-19T07:53:52;7.77;;;6.10;;
41514;SDS011;27247;48.020;16.720;2022-08-19T07:58:04;8.18;;;6.47;;
41514;SDS011;27247;48.020;16.720;2022-08-19T08:02:14;9.95;;;6.93;;
41514;SDS011;27247;48.020;16.720;2022-08-19T08:06:25;10.53;;;6.43;;
41514;SDS011;27247;48.020;16.720;2022-08-19T08:10:54;7.68;;;5.88;;
41514;SDS011;27247;48.020;16.720;2022-08-19T08:15:06;16.08;;;6.85;;
41514;SDS011;27247;48.020;16.720;2022-08-19T08:19:21;8.43;;;6.45;;
41514;SDS011;27247;48.020;16.720;2022-08-19T08:23:33;9.82;;;6.95;;
41514;SDS011;27247;48.020;16.720;2022-08-19T08:27:44;7.87;;;6.53;;
41514;SDS011;27247;48.020;16.720;2022-08-19T08:31:56;13.80;;;6.53;;
41514;SDS011;27247;48.020;16.720;2022-08-19T08:36:07;10.95;;;6.70;;
41514;SDS011;27247;48.020;16.720;2022-08-19T08:44:53;9.57;;;5.93;;
41514;SDS011;27247;48.020;16.720;2022-08-19T08:53:50;10.20;;;5.80;;
41514;SDS011;27247;48.020;16.720;2022-08-19T08:58:06;10.55;;;6.35;;
41514;SDS011;27247;48.020;16.720;2022-08-19T09:02:23;9.88;;;6.00;;
41514;SDS011;27247;48.020;16.720;2022-08-19T09:10:51;11.38;;;5.72;;
41514;SDS011;27247;48.020;16.720;2022-08-19T09:15:08;11.93;;;5.47;;
41514;SDS011;27247;48.020;16.720;2022-08-19T09:19:21;10.93;;;5.82;;
41514;SDS011;27247;48.020;16.720;2022-08-19T09:23:32;8.23;;;5.50;;
41514;SDS011;27247;48.020;16.720;2022-08-19T09:27:42;8.70;;;5.80;;
41514;SDS011;27247;48.020;16.720;2022-08-19T09:31:53;9.10;;;5.00;;
41514;SDS011;27247;48.020;16.720;2022-08-19T09:36:07;7.85;;;5.68;;
41514;SDS011;27247;48.020;16.720;2022-08-19T09:40:19;11.35;;;6.05;;
41514;SDS011;27247;48.020;16.720;2022-08-19T09:44:30;9.57;;;5.03;;
41514;SDS011;27247;48.020;16.720;2022-08-19T09:48:40;11.20;;;5.70;;
41514;SDS011;27247;48.020;16.720;2022-08-19T09:52:52;8.73;;;6.03;;
41514;SDS011;27247;48.020;16.720;2022-08-19T09:57:03;9.18;;;5.53;;
41514;SDS011;27247;48.020;16.720;2022-08-19T10:01:18;10.57;;;5.25;;
41514;SDS011;27247;48.020;16.720;2022-08-19T10:05:33;13.90;;;5.50;;
41514;SDS011;27247;48.020;16.720;2022-08-19T10:09:58;13.68;;;5.70;;
41514;SDS011;27247;48.020;16.720;2022-08-19T10:14:09;11.67;;;5.83;;
41514;SDS011;27247;48.020;16.720;2022-08-19T10:18:20;7.38;;;5.35;;
41514;SDS011;27247;48.020;16.720;2022-08-19T10:22:31;9.13;;;5.13;;
41514;SDS011;27247;48.020;16.720;2022-08-19T10:26:41;10.98;;;5.43;;
41514;SDS011;27247;48.020;16.720;2022-08-19T10:30:54;12.30;;;6.05;;
41514;SDS011;27247;48.020;16.720;2022-08-19T10:35:05;10.97;;;6.03;;
41514;SDS011;27247;48.020;16.720;2022-08-19T10:39:18;13.90;;;6.45;;
41514;SDS011;27247;48.020;16.720;2022-08-19T10:43:29;10.43;;;5.60;;
41514;SDS011;27247;48.020;16.720;2022-08-19T10:47:39;17.63;;;6.67;;
41514;SDS011;27247;48.020;16.720;2022-08-19T10:51:49;14.63;;;6.13;;
41514;SDS011;27247;48.020;16.720;2022-08-19T10:56:19;10.50;;;6.28;;
41514;SDS011;27247;48.020;16.720;2022-08-19T11:00:54;22.50;;;7.00;;
41514;SDS011;27247;48.020;16.720;2022-08-19T11:05:07;15.27;;;6.43;;
41514;SDS011;27247;48.020;16.720;2022-08-19T11:09:21;16.88;;;6.68;;
41514;SDS011;27247;48.020;16.720;2022-08-19T11:13:40;17.42;;;6.53;;
41514;SDS011;27247;48.020;16.720;2022-08-19T11:17:51;21.73;;;7.70;;
41514;SDS011;27247;48.020;16.720;2022-08-19T11:22:04;11.30;;;7.85;;
41514;SDS011;27247;48.020;16.720;2022-08-19T11:26:19;12.82;;;7.05;;
41514;SDS011;27247;48.020;16.720;2022-08-19T11:30:31;13.82;;;7.40;;
41514;SDS011;27247;48.020;16.720;2022-08-19T11:34:43;10.55;;;6.25;;
41514;SDS011;27247;48.020;16.720;2022-08-19T11:38:53;14.32;;;6.88;;
41514;SDS011;27247;48.020;16.720;2022-08-19T11:43:04;12.10;;;6.10;;
41514;SDS011;27247;48.020;16.720;2022-08-19T11:47:15;16.77;;;5.57;;
41514;SDS011;27247;48.020;16.720;2022-08-19T11:51:25;12.73;;;5.22;;
41514;SDS011;27247;48.020;16.720;2022-08-19T11:55:38;13.73;;;4.82;;
41514;SDS011;27247;48.020;16.720;2022-08-19T11:59:52;15.93;;;5.30;;
41514;SDS011;27247;48.020;16.720;2022-08-19T12:04:02;18.08;;;5.35;;
41514;SDS011;27247;48.020;16.720;2022-08-19T12:08:15;12.25;;;5.00;;
41514;SDS011;27247;48.020;16.720;2022-08-19T12:12:27;15.30;;;5.82;;
41514;SDS011;27247;48.020;16.720;2022-08-19T12:16:37;21.90;;;6.28;;
41514;SDS011;27247;48.020;16.720;2022-08-19T12:20:49;12.27;;;5.13;;
41514;SDS011;27247;48.020;16.720;2022-08-19T12:25:01;12.40;;;5.90;;
41514;SDS011;27247;48.020;16.720;2022-08-19T12:29:11;12.00;;;5.18;;
41514;SDS011;27247;48.020;16.720;2022-08-19T12:33:22;14.13;;;5.17;;
41514;SDS011;27247;48.020;16.720;2022-08-19T12:37:34;12.85;;;5.30;;
41514;SDS011;27247;48.020;16.720;2022-08-19T12:41:45;12.87;;;5.33;;
41514;SDS011;27247;48.020;16.720;2022-08-19T12:45:55;13.98;;;5.88;;
41514;SDS011;27247;48.020;16.720;2022-08-19T12:50:06;12.10;;;6.07;;
41514;SDS011;27247;48.020;16.720;2022-08-19T12:54:18;13.07;;;6.13;;
41514;SDS011;27247;48.020;16.720;2022-08-19T12:58:29;14.43;;;6.13;;
41514;SDS011;27247;48.020;16.720;2022-08-19T13:02:41;10.75;;;5.80;;
41514;SDS011;27247;48.020;16.720;2022-08-19T13:06:54;10.05;;;5.68;;
41514;SDS011;27247;48.020;16.720;2022-08-19T13:11:08;15.32;;;6.55;;
41514;SDS011;27247;48.020;16.720;2022-08-19T13:15:23;14.20;;;6.13;;
41514;SDS011;27247;48.020;16.720;2022-08-19T13:19:35;19.70;;;6.67;;
41514;SDS011;27247;48.020;16.720;2022-08-19T13:23:46;18.35;;;5.47;;
41514;SDS011;27247;48.020;16.720;2022-08-19T13:27:57;15.15;;;6.78;;
41514;SDS011;27247;48.020;16.720;2022-08-19T13:32:08;20.98;;;6.90;;
41514;SDS011;27247;48.020;16.720;2022-08-19T13:36:42;15.50;;;6.45;;
41514;SDS011;27247;48.020;16.720;2022-08-19T13:40:53;13.50;;;6.50;;
41514;SDS011;27247;48.020;16.720;2022-08-19T13:45:05;12.95;;;5.93;;
41514;SDS011;27247;48.020;16.720;2022-08-19T13:49:16;17.83;;;6.28;;
41514;SDS011;27247;48.020;16.720;2022-08-19T13:53:27;16.67;;;7.05;;
41514;SDS011;27247;48.020;16.720;2022-08-19T13:57:37;15.10;;;6.03;;
41514;SDS011;27247;48.020;16.720;2022-08-19T14:01:51;16.33;;;5.18;;
41514;SDS011;27247;48.020;16.720;2022-08-19T14:06:03;18.80;;;5.32;;
41514;SDS011;27247;48.020;16.720;2022-08-19T14:10:13;9.88;;;4.63;;
41514;SDS011;27247;48.020;16.720;2022-08-19T14:14:25;11.48;;;4.68;;
41514;SDS011;27247;48.020;16.720;2022-08-19T14:18:35;14.68;;;5.05;;
41514;SDS011;27247;48.020;16.720;2022-08-19T14:22:46;13.70;;;4.97;;
41514;SDS011;27247;48.020;16.720;2022-08-19T14:26:58;11.75;;;4.82;;
41514;SDS011;27247;48.020;16.720;2022-08-19T14:31:09;13.75;;;5.03;;
41514;SDS011;27247;48.020;16.720;2022-08-19T14:35:22;16.40;;;5.35;;
41514;SDS011;27247;48.020;16.720;2022-08-19T14:39:32;12.43;;;4.75;;
41514;SDS011;27247;48.020;16.720;2022-08-19T14:43:44;12.25;;;4.55;;
41514;SDS011;27247;48.020;16.720;2022-08-19T14:47:56;14.02;;;4.95;;
41514;SDS011;27247;48.020;16.720;2022-08-19T14:52:06;16.20;;;4.90;;
41514;SDS011;27247;48.020;16.720;2022-08-19T14:56:18;17.73;;;4.47;;
41514;SDS011;27247;48.020;16.720;2022-08-19T15:00:32;12.35;;;4.03;;
41514;SDS011;27247;48.020;16.720;2022-08-19T15:04:42;12.97;;;4.57;;
41514;SDS011;27247;48.020;16.720;2022-08-19T15:08:53;16.70;;;4.03;;
41514;SDS011;27247;48.020;16.720;2022-08-19T15:13:04;14.93;;;4.18;;
41514;SDS011;27247;48.020;16.720;2022-08-19T15:17:16;14.30;;;4.05;;
41514;SDS011;27247;48.020;16.720;2022-08-19T15:21:27;14.18;;;3.55;;
41514;SDS011;27247;48.020;16.720;2022-08-19T15:25:39;11.45;;;3.08;;
41514;SDS011;27247;48.020;16.720;2022-08-19T15:29:51;14.65;;;3.60;;
41514;SDS011;27247;48.020;16.720;2022-08-19T15:34:02;19.27;;;4.03;;
41514;SDS011;27247;48.020;16.720;2022-08-19T15:38:13;13.15;;;3.50;;
41514;SDS011;27247;48.020;16.720;2022-08-19T15:42:23;13.38;;;3.40;;
41514;SDS011;27247;48.020;16.720;2022-08-19T15:46:37;15.88;;;3.22;;
41514;SDS011;27247;48.020;16.720;2022-08-19T15:50:49;11.75;;;3.70;;
41514;SDS011;27247;48.020;16.720;2022-08-19T15:55:00;8.00;;;3.05;;
41514;SDS011;27247;48.020;16.720;2022-08-19T15:59:12;11.07;;;4.03;;
41514;SDS011;27247;48.020;16.720;2022-08-19T16:03:41;14.95;;;3.72;;
41514;SDS011;27247;48.020;16.720;2022-08-19T16:08:10;12.32;;;3.13;;
41514;SDS011;27247;48.020;16.720;2022-08-19T16:12:20;11.38;;;3.22;;
41514;SDS011;27247;48.020;16.720;2022-08-19T16:16:36;13.07;;;3.47;;
41514;SDS011;27247;48.020;16.720;2022-08-19T16:20:47;10.70;;;3.53;;
41514;SDS011;27247;48.020;16.720;2022-08-19T16:24:58;16.80;;;3.50;;
41514;SDS011;27247;48.020;16.720;2022-08-19T16:29:08;13.65;;;3.47;;
41514;SDS011;27247;48.020;16.720;2022-08-19T16:33:19;11.95;;;2.58;;
41514;SDS011;27247;48.020;16.720;2022-08-19T16:37:29;11.03;;;3.13;;
41514;SDS011;27247;48.020;16.720;2022-08-19T16:41:41;12.77;;;3.03;;
41514;SDS011;27247;48.020;16.720;2022-08-19T16:45:52;13.63;;;3.35;;
41514;SDS011;27247;48.020;16.720;2022-08-19T16:50:03;14.07;;;2.75;;
41514;SDS011;27247;48.020;16.720;2022-08-19T16:54:16;9.43;;;3.50;;
41514;SDS011;27247;48.020;16.720;2022-08-19T16:58:27;12.65;;;3.05;;
41514;SDS011;27247;48.020;16.720;2022-08-19T17:02:40;13.07;;;2.75;;
41514;SDS011;27247;48.020;16.720;2022-08-19T17:06:50;15.43;;;3.83;;
41514;SDS011;27247;48.020;16.720;2022-08-19T17:11:00;13.07;;;3.57;;
41514;SDS011;27247;48.020;16.720;2022-08-19T17:15:12;11.90;;;3.70;;
41514;SDS011;27247;48.020;16.720;2022-08-19T17:19:22;14.18;;;3.33;;
41514;SDS011;27247;48.020;16.720;2022-08-19T17:23:32;15.37;;;3.60;;
41514;SDS011;27247;48.020;16.720;2022-08-19T17:27:43;16.35;;;4.05;;
41514;SDS011;27247;48.020;16.720;2022-08-19T17:31:53;28.30;;;4.70;;
41514;SDS011;27247;48.020;16.720;2022-08-19T17:36:04;14.10;;;3.90;;
41514;SDS011;27247;48.020;16.720;2022-08-19T17:40:16;15.27;;;4.40;;
41514;SDS011;27247;48.020;16.720;2022-08-19T17:44:27;13.60;;;4.45;;
41514;SDS011;27247;48.020;16.720;2022-08-19T17:48:37;16.50;;;4.10;;
41514;SDS011;27247;48.020;16.720;2022-08-19T17:52:47;18.13;;;4.17;;
41514;SDS011;27247;48.020;16.720;2022-08-19T17:57:01;9.80;;;4.25;;
41514;SDS011;27247;48.020;16.720;2022-08-19T18:01:12;10.93;;;3.80;;
41514;SDS011;27247;48.020;16.720;2022-08-19T18:05:24;15.18;;;3.90;;
41514;SDS011;27247;48.020;16.720;2022-08-19T18:09:39;13.05;;;3.90;;
41514;SDS011;27247;48.020;16.720;2022-08-19T18:13:50;16.35;;;3.63;;
41514;SDS011;27247;48.020;16.720;2022-08-19T18:18:01;13.13;;;3.83;;
41514;SDS011;27247;48.020;16.720;2022-08-19T18:26:40;21.37;;;4.47;;
41514;SDS011;27247;48.020;16.720;2022-08-19T18:30:50;12.25;;;4.32;;
41514;SDS011;27247;48.020;16.720;2022-08-19T18:35:03;10.73;;;3.78;;
41514;SDS011;27247;48.020;16.720;2022-08-19T18:39:18;19.95;;;3.78;;
41514;SDS011;27247;48.020;16.720;2022-08-19T18:43:48;13.80;;;4.57;;
41514;SDS011;27247;48.020;16.720;2022-08-19T18:48:17;14.00;;;4.00;;
41514;SDS011;27247;48.020;16.720;2022-08-19T18:56:56;19.27;;;4.70;;
41514;SDS011;27247;48.020;16.720;2022-08-19T19:01:09;10.60;;;4.22;;
41514;SDS011;27247;48.020;16.720;2022-08-19T19:05:24;11.48;;;4.68;;
41514;SDS011;27247;48.020;16.720;2022-08-19T19:09:34;13.50;;;4.77;;
41514;SDS011;27247;48.020;16.720;2022-08-19T19:13:45;15.70;;;5.40;;
41514;SDS011;27247;48.020;16.720;2022-08-19T19:17:57;17.65;;;5.32;;
41514;SDS011;27247;48.020;16.720;2022-08-19T19:22:08;13.03;;;5.17;;
41514;SDS011;27247;48.020;16.720;2022-08-19T19:26:21;17.52;;;5.45;;
41514;SDS011;27247;48.020;16.720;2022-08-19T19:30:32;11.48;;;4.68;;
41514;SDS011;27247;48.020;16.720;2022-08-19T19:34:42;13.37;;;4.17;;
41514;SDS011;27247;48.020;16.720;2022-08-19T19:38:52;20.10;;;4.77;;
41514;SDS011;27247;48.020;16.720;2022-08-19T19:43:03;13.80;;;4.85;;
41514;SDS011;27247;48.020;16.720;2022-08-19T19:47:15;23.80;;;6.80;;
41514;SDS011;27247;48.020;16.720;2022-08-19T19:51:27;16.67;;;5.20;;
41514;SDS011;27247;48.020;16.720;2022-08-19T19:55:38;17.75;;;6.35;;
41514;SDS011;27247;48.020;16.720;2022-08-19T19:59:50;16.50;;;6.50;;
41514;SDS011;27247;48.020;16.720;2022-08-19T20:04:00;16.07;;;6.27;;
41514;SDS011;27247;48.020;16.720;2022-08-19T20:08:10;23.08;;;6.93;;
41514;SDS011;27247;48.020;16.720;2022-08-19T20:16:50;23.45;;;6.78;;
41514;SDS011;27247;48.020;16.720;2022-08-19T20:21:01;17.90;;;7.07;;
41514;SDS011;27247;48.020;16.720;2022-08-19T20:25:13;26.00;;;7.95;;
41514;SDS011;27247;48.020;16.720;2022-08-19T20:29:25;18.30;;;7.57;;
41514;SDS011;27247;48.020;16.720;2022-08-19T20:33:36;21.83;;;7.75;;
41514;SDS011;27247;48.020;16.720;2022-08-19T20:37:46;21.87;;;8.00;;
41514;SDS011;27247;48.020;16.720;2022-08-19T20:41:57;26.77;;;8.85;;
41514;SDS011;27247;48.020;16.720;2022-08-19T20:46:09;29.02;;;8.55;;
41514;SDS011;27247;48.020;16.720;2022-08-19T20:50:20;18.93;;;8.30;;
41514;SDS011;27247;48.020;16.720;2022-08-19T20:54:30;28.27;;;8.83;;
41514;SDS011;27247;48.020;16.720;2022-08-19T20:58:41;18.88;;;7.82;;
41514;SDS011;27247;48.020;16.720;2022-08-19T21:02:52;23.23;;;9.02;;
41514;SDS011;27247;48.020;16.720;2022-08-19T21:07:02;20.17;;;8.83;;
41514;SDS011;27247;48.020;16.720;2022-08-19T21:11:13;20.92;;;8.52;;
41514;SDS011;27247;48.020;16.720;2022-08-19T21:15:23;20.08;;;9.27;;
41514;SDS011;27247;48.020;16.720;2022-08-19T21:19:34;26.02;;;9.23;;
41514;SDS011;27247;48.020;16.720;2022-08-19T21:23:44;33.42;;;10.27;;
41514;SDS011;27247;48.020;16.720;2022-08-19T21:27:54;21.00;;;9.55;;
41514;SDS011;27247;48.020;16.720;2022-08-19T21:32:05;23.07;;;10.10;;
41514;SDS011;27247;48.020;16.720;2022-08-19T21:36:16;31.63;;;10.60;;
41514;SDS011;27247;48.020;16.720;2022-08-19T21:40:26;22.67;;;9.50;;
41514;SDS011;27247;48.020;16.720;2022-08-19T21:44:37;23.58;;;10.32;;
41514;SDS011;27247;48.020;16.720;2022-08-19T21:48:49;23.13;;;10.23;;
41514;SDS011;27247;48.020;16.720;2022-08-19T21:52:59;23.70;;;9.70;;
41514;SDS011;27247;48.020;16.720;2022-08-19T21:57:10;14.30;;;8.38;;
41514;SDS011;27247;48.020;16.720;2022-08-19T22:01:20;21.80;;;9.87;;
41514;SDS011;27247;48.020;16.720;2022-08-19T22:05:32;19.05;;;9.45;;
41514;SDS011;27247;48.020;16.720;2022-08-19T22:09:44;23.77;;;9.10;;
41514;SDS011;27247;48.020;16.720;2022-08-19T22:13:55;20.60;;;10.35;;
41514;SDS011;27247;48.020;16.720;2022-08-19T22:18:05;20.47;;;9.33;;
41514;SDS011;27247;48.020;16.720;2022-08-19T22:22:19;25.90;;;9.73;;
41514;SDS011;27247;48.020;16.720;2022-08-19T22:26:40;22.63;;;10.10;;
41514;SDS011;27247;48.020;16.720;2022-08-19T22:30:51;19.73;;;9.07;;
41514;SDS011;27247;48.020;16.720;2022-08-19T22:35:01;23.05;;;9.30;;
41514;SDS011;27247;48.020;16.720;2022-08-19T22:39:15;25.55;;;9.90;;
41514;SDS011;27247;48.020;16.720;2022-08-19T22:43:26;22.33;;;9.80;;
41514;SDS011;27247;48.020;16.720;2022-08-19T22:47:39;22.95;;;10.02;;
41514;SDS011;27247;48.020;16.720;2022-08-19T22:51:49;23.03;;;10.50;;
41514;SDS011;27247;48.020;16.720;2022-08-19T22:56:18;21.35;;;9.90;;
41514;SDS011;27247;48.020;16.720;2022-08-19T23:00:30;23.33;;;10.50;;
41514;SDS011;27247;48.020;16.720;2022-08-19T23:04:41;19.27;;;10.30;;
41514;SDS011;27247;48.020;16.720;2022-08-19T23:08:51;17.70;;;10.67;;
41514;SDS011;27247;48.020;16.720;2022-08-19T23:13:02;22.97;;;9.90;;
41514;SDS011;27247;48.020;16.720;2022-08-19T23:17:12;22.55;;;10.90;;
41514;SDS011;27247;48.020;16.720;2022-08-19T23:21:23;25.48;;;11.05;;
41514;SDS011;27247;48.020;16.720;2022-08-19T23:25:36;24.45;;;10.95;;
41514;SDS011;27247;48.020;16.720;2022-08-19T23:29:46;26.63;;;9.93;;
41514;SDS011;27247;48.020;16.720;2022-08-19T23:34:15;23.75;;;9.23;;
41514;SDS011;27247;48.020;16.720;2022-08-19T23:38:27;20.45;;;9.30;;
41514;SDS011;27247;48.020;16.720;2022-08-19T23:42:39;16.85;;;9.00;;
41514;SDS011;27247;48.020;16.720;2022-08-19T23:46:50;16.30;;;8.77;;
41514;SDS011;27247;48.020;16.720;2022-08-19T23:51:02;24.33;;;10.47;;
41514;SDS011;27247;48.020;16.720;2022-08-19T23:55:15;20.23;;;9.85;;
41514;SDS011;27247;48.020;16.720;2022-08-19T23:59:27;17.05;;;8.27;;
